VAR022 VNLK-VNLK
Flight info
| Callsign | VAR022 |
|---|---|
| Flight time | 0h 21m |
| Altitude | 22500 |
| Route | VFR CAMPO BASE |
| Aircraft | C208/L-SDFGIRY/C |
Departure
| Time | 2025-12-09 21:16 |
|---|---|
| Airport | Tenzing-Hillary Airport (VNLK) |
Arrival
| Time | 2025-12-09 21:38 |
|---|---|
| Airport | Tenzing-Hillary Airport (VNLK) |
| Time | Latitude | Longitude | Altitude | Speed | Heading |
|---|---|---|---|---|---|
| 2025-12-09 21:06 | 28.17323 | 86.74965 | 23116 ft | 131 kts | 124° |
| 2025-12-09 21:06 | 28.16812 | 86.75829 | 23196 ft | 132 kts | 124° |
| 2025-12-09 21:07 | 28.15284 | 86.78411 | 23438 ft | 132 kts | 124° |
| 2025-12-09 21:07 | 28.14263 | 86.80138 | 23483 ft | 132 kts | 124° |
| 2025-12-09 21:08 | 28.13245 | 86.81863 | 23586 ft | 131 kts | 124° |
| 2025-12-09 21:08 | 28.12229 | 86.83585 | 23725 ft | 132 kts | 124° |
| 2025-12-09 21:09 | 28.11219 | 86.85295 | 23798 ft | 131 kts | 124° |
| 2025-12-09 21:09 | 28.10281 | 86.87078 | 23906 ft | 132 kts | 116° |
| 2025-12-09 21:10 | 28.09917 | 86.88030 | 23966 ft | 132 kts | 113° |
| 2025-12-09 21:10 | 28.09203 | 86.89939 | 24054 ft | 132 kts | 113° |
| 2025-12-09 21:11 | 28.07348 | 86.93388 | 24181 ft | 131 kts | 143° |
| 2025-12-09 21:11 | 28.06631 | 86.94016 | 24203 ft | 130 kts | 143° |
| 2025-12-09 21:12 | 28.05191 | 86.95268 | 24273 ft | 130 kts | 143° |
| 2025-12-09 21:12 | 28.03750 | 86.96518 | 24311 ft | 132 kts | 143° |
| 2025-12-09 21:13 | 28.02294 | 86.97778 | 24323 ft | 134 kts | 143° |
| 2025-12-09 21:13 | 28.01552 | 86.98417 | 24315 ft | 135 kts | 143° |
| 2025-12-09 21:14 | 27.99862 | 86.99378 | 24331 ft | 139 kts | 158° |
| 2025-12-09 21:15 | 27.96158 | 87.00962 | 24315 ft | 144 kts | 187° |
| 2025-12-09 21:15 | 27.95187 | 87.00711 | 24322 ft | 144 kts | 195° |
| 2025-12-09 21:15 | 27.93450 | 86.99781 | 24324 ft | 140 kts | 236° |
| 2025-12-09 21:16 | 27.92145 | 86.96881 | 24326 ft | 141 kts | 251° |
| 2025-12-09 21:17 | 27.91457 | 86.94631 | 23747 ft | 178 kts | 252° |
| 2025-12-09 21:17 | 27.91028 | 86.93189 | 22763 ft | 207 kts | 252° |
| 2025-12-09 21:17 | 27.90067 | 86.89974 | 21247 ft | 207 kts | 252° |
| 2025-12-09 21:18 | 27.87989 | 86.89419 | 20486 ft | 180 kts | 142° |
| 2025-12-09 21:19 | 27.85301 | 86.91654 | 19789 ft | 184 kts | 147° |
| 2025-12-09 21:19 | 27.83030 | 86.92781 | 19652 ft | 174 kts | 169° |
| 2025-12-09 21:20 | 27.80616 | 86.93251 | 19321 ft | 167 kts | 150° |
| 2025-12-09 21:20 | 27.79601 | 86.93957 | 18718 ft | 194 kts | 160° |
| 2025-12-09 21:21 | 27.75456 | 86.93492 | 17114 ft | 197 kts | 183° |
| 2025-12-09 21:21 | 27.74146 | 86.93490 | 16751 ft | 180 kts | 176° |
| 2025-12-09 21:21 | 27.71796 | 86.93978 | 15958 ft | 170 kts | 173° |
| 2025-12-09 21:22 | 27.69854 | 86.94102 | 15742 ft | 138 kts | 174° |
| 2025-12-09 21:23 | 27.66837 | 86.94471 | 14493 ft | 153 kts | 182° |
| 2025-12-09 21:23 | 27.64798 | 86.94159 | 14015 ft | 141 kts | 201° |
| 2025-12-09 21:24 | 27.62955 | 86.93372 | 13405 ft | 142 kts | 202° |
| 2025-12-09 21:24 | 27.61211 | 86.92612 | 13108 ft | 123 kts | 202° |
| 2025-12-09 21:25 | 27.59673 | 86.91819 | 12762 ft | 120 kts | 207° |
| 2025-12-09 21:25 | 27.58909 | 86.91403 | 12600 ft | 127 kts | 207° |
| 2025-12-09 21:25 | 27.57240 | 86.90476 | 12324 ft | 140 kts | 207° |
| 2025-12-09 21:26 | 27.55441 | 86.89469 | 12025 ft | 149 kts | 207° |
| 2025-12-09 21:27 | 27.52928 | 86.87583 | 11982 ft | 147 kts | 231° |
| 2025-12-09 21:27 | 27.51638 | 86.85729 | 11984 ft | 157 kts | 234° |
| 2025-12-09 21:28 | 27.50331 | 86.83665 | 11986 ft | 165 kts | 240° |
| 2025-12-09 21:28 | 27.49203 | 86.81399 | 11985 ft | 167 kts | 242° |
| 2025-12-09 21:28 | 27.48638 | 86.80257 | 11985 ft | 167 kts | 242° |
| 2025-12-09 21:29 | 27.47507 | 86.77969 | 11984 ft | 167 kts | 242° |
| 2025-12-09 21:29 | 27.46442 | 86.75671 | 11983 ft | 165 kts | 253° |
| 2025-12-09 21:30 | 27.46287 | 86.73168 | 11975 ft | 160 kts | 281° |
| 2025-12-09 21:31 | 27.48292 | 86.70322 | 11981 ft | 159 kts | 321° |
| 2025-12-09 21:31 | 27.50285 | 86.69238 | 11985 ft | 160 kts | 339° |
| 2025-12-09 21:32 | 27.52530 | 86.69200 | 11835 ft | 168 kts | 2° |
| 2025-12-09 21:32 | 27.54937 | 86.69338 | 11452 ft | 175 kts | 2° |
| 2025-12-09 21:32 | 27.56155 | 86.69385 | 11255 ft | 171 kts | 1° |
| 2025-12-09 21:33 | 27.58451 | 86.69421 | 10748 ft | 159 kts | 360° |
| 2025-12-09 21:33 | 27.60479 | 86.69419 | 10204 ft | 130 kts | 359° |
| 2025-12-09 21:34 | 27.62145 | 86.69411 | 9782 ft | 106 kts | 359° |
| 2025-12-09 21:35 | 27.64272 | 86.69468 | 9768 ft | 100 kts | 3° |
| 2025-12-09 21:35 | 27.65646 | 86.69705 | 9698 ft | 105 kts | 11° |
| 2025-12-09 21:36 | 27.67024 | 86.70107 | 9494 ft | 99 kts | 21° |
| 2025-12-09 21:36 | 27.67822 | 86.71330 | 9268 ft | 102 kts | 56° |
| 2025-12-09 21:36 | 27.68169 | 86.71979 | 9203 ft | 94 kts | 59° |
| 2025-12-09 21:37 | 27.68728 | 86.73045 | 9364 ft | 47 kts | 58° |
| 2025-12-09 21:37 | 27.68755 | 86.73156 | 9408 ft | 0 kts | 237° |